createdAt,value
2022-12-24T00:00:27.361Z,6.00
2022-12-24T00:02:57.554Z,5.80
2022-12-24T00:05:30.253Z,5.80
2022-12-24T00:08:00.294Z,5.80
2022-12-24T00:10:30.287Z,5.90
2022-12-24T00:13:00.270Z,5.90
2022-12-24T00:15:30.394Z,5.80
2022-12-24T00:18:00.409Z,5.90
2022-12-24T00:20:33.536Z,5.90
2022-12-24T00:23:03.758Z,6.10
2022-12-24T00:25:33.744Z,6.20
2022-12-24T00:28:03.765Z,6.20
2022-12-24T00:30:33.879Z,6.20
2022-12-24T00:33:03.925Z,6.10
2022-12-24T00:35:36.711Z,6.10
2022-12-24T00:38:07.065Z,6.20
2022-12-24T00:40:37.366Z,6.20
2022-12-24T00:43:07.601Z,6.20
2022-12-24T00:45:37.609Z,6.40
2022-12-24T00:48:07.836Z,6.80
2022-12-24T00:50:40.491Z,6.90
2022-12-24T00:53:10.513Z,7.00
2022-12-24T00:55:40.608Z,7.30
2022-12-24T00:58:10.602Z,7.30
2022-12-24T01:00:40.603Z,7.40
2022-12-24T01:03:10.737Z,7.40
2022-12-24T01:05:40.819Z,7.40
2022-12-24T01:08:10.750Z,7.40
2022-12-24T01:10:40.854Z,7.30
2022-12-24T01:13:10.805Z,7.40
2022-12-24T01:15:40.774Z,7.50
2022-12-24T01:18:10.732Z,7.40
2022-12-24T01:20:43.352Z,7.40
2022-12-24T01:23:13.367Z,7.50
2022-12-24T01:25:43.408Z,7.30
2022-12-24T01:28:13.367Z,7.20
2022-12-24T01:30:44.305Z,7.00
2022-12-24T01:33:14.300Z,6.60
2022-12-24T01:35:47.401Z,6.20
2022-12-24T01:38:17.964Z,5.90
2022-12-24T01:41:00.440Z,5.70
2022-12-24T01:43:33.208Z,5.80
2022-12-24T01:46:05.510Z,6.00
2022-12-24T01:48:39.063Z,6.40
2022-12-24T01:51:20.687Z,6.60
2022-12-24T01:53:53.563Z,6.90
2022-12-24T01:56:24.252Z,7.10
2022-12-24T01:58:57.497Z,7.20
2022-12-24T02:01:28.087Z,7.40
2022-12-24T02:03:58.131Z,7.40
2022-12-24T02:06:30.795Z,7.40
2022-12-24T02:09:00.741Z,7.50
2022-12-24T02:11:30.768Z,7.40
2022-12-24T02:14:02.369Z,7.40
2022-12-24T02:16:42.054Z,7.30
2022-12-24T02:19:24.428Z,7.40
2022-12-24T02:22:05.494Z,7.40
2022-12-24T02:24:59.057Z,7.30
2022-12-24T02:27:37.850Z,7.40
2022-12-24T02:30:14.304Z,7.50
2022-12-24T02:33:11.661Z,7.60
2022-12-24T02:35:47.976Z,7.70
2022-12-24T02:38:22.689Z,7.80
2022-12-24T02:40:55.370Z,7.90
2022-12-24T02:43:26.976Z,8.10
2022-12-24T02:46:02.148Z,8.30
2022-12-24T02:48:33.404Z,8.30
2022-12-24T02:51:07.067Z,8.30
2022-12-24T02:53:37.754Z,8.40
2022-12-24T02:56:18.422Z,8.30
2022-12-24T02:59:18.726Z,8.30
2022-12-24T03:02:00.744Z,8.40
2022-12-24T03:04:45.039Z,8.50
2022-12-24T03:07:20.925Z,8.50
2022-12-24T03:10:01.302Z,8.40
2022-12-24T03:12:36.005Z,8.40
2022-12-24T03:15:08.571Z,8.40
2022-12-24T03:17:42.504Z,8.50
2022-12-24T03:20:14.937Z,8.60
2022-12-24T03:22:44.926Z,8.50
2022-12-24T03:25:14.876Z,8.60
2022-12-24T03:27:45.069Z,8.60
2022-12-24T03:30:18.686Z,8.70
2022-12-24T03:32:51.407Z,8.70
2022-12-24T03:35:21.764Z,8.70
2022-12-24T03:37:51.778Z,8.70
2022-12-24T03:40:22.209Z,8.70
2022-12-24T03:42:52.213Z,8.80
2022-12-24T03:45:22.475Z,8.80
2022-12-24T03:47:55.084Z,8.80
2022-12-24T03:50:25.177Z,8.80
2022-12-24T03:52:55.204Z,8.80
2022-12-24T03:55:25.286Z,8.80
2022-12-24T03:57:55.287Z,8.70
2022-12-24T04:00:25.401Z,8.70
2022-12-24T04:02:58.301Z,8.80
2022-12-24T04:05:28.481Z,8.70
2022-12-24T04:07:58.496Z,8.70
2022-12-24T04:10:28.547Z,8.70
2022-12-24T04:12:58.531Z,8.60
2022-12-24T04:15:28.539Z,8.70
2022-12-24T04:18:01.164Z,8.60
2022-12-24T04:20:31.189Z,8.60
2022-12-24T04:23:01.150Z,8.80
2022-12-24T04:25:31.164Z,8.70
2022-12-24T04:28:01.156Z,8.60
2022-12-24T04:30:31.162Z,8.60
2022-12-24T04:33:03.790Z,8.50
2022-12-24T04:35:33.848Z,8.40
2022-12-24T04:38:03.773Z,8.40
2022-12-24T04:40:33.738Z,8.40
2022-12-24T04:43:04.055Z,8.30
2022-12-24T04:45:34.948Z,8.30
2022-12-24T04:48:07.948Z,8.50
2022-12-24T04:50:37.920Z,8.60
2022-12-24T04:53:07.849Z,8.70
2022-12-24T04:55:37.834Z,8.70
2022-12-24T04:58:07.822Z,8.70
2022-12-24T05:00:37.883Z,8.70
2022-12-24T05:03:10.492Z,8.80
2022-12-24T05:05:40.588Z,8.90
2022-12-24T05:08:10.566Z,8.80
2022-12-24T05:10:40.623Z,8.80
2022-12-24T05:13:10.608Z,8.70
2022-12-24T05:15:40.592Z,8.80
2022-12-24T05:18:13.138Z,8.70
2022-12-24T05:20:44.479Z,8.70
2022-12-24T05:23:31.018Z,8.70
2022-12-24T05:26:13.439Z,8.70
2022-12-24T05:28:43.649Z,8.70
2022-12-24T05:31:13.786Z,8.80
2022-12-24T05:33:46.445Z,8.80
2022-12-24T05:36:17.006Z,8.70
2022-12-24T05:38:46.958Z,8.60
2022-12-24T05:41:17.067Z,8.70
2022-12-24T05:43:47.088Z,8.60
2022-12-24T05:46:19.156Z,8.70
2022-12-24T05:48:52.486Z,8.70
2022-12-24T05:51:25.041Z,8.80
2022-12-24T05:53:55.182Z,8.80
2022-12-24T05:56:27.150Z,8.90
2022-12-24T05:58:58.146Z,8.90
2022-12-24T06:01:28.865Z,8.90
2022-12-24T06:04:02.306Z,8.80
2022-12-24T06:06:32.881Z,8.60
2022-12-24T06:09:02.892Z,8.60
2022-12-24T06:11:33.274Z,8.70
2022-12-24T06:14:03.326Z,8.70
2022-12-24T06:16:33.488Z,8.70
2022-12-24T06:19:06.118Z,8.80
2022-12-24T06:21:36.400Z,8.80
2022-12-24T06:24:06.824Z,8.80
2022-12-24T06:26:36.870Z,8.70
2022-12-24T06:29:07.025Z,8.70
2022-12-24T06:31:37.199Z,8.70
2022-12-24T06:34:09.938Z,8.70
2022-12-24T06:36:39.948Z,8.70
2022-12-24T06:39:09.872Z,8.60
2022-12-24T06:41:39.807Z,8.50
2022-12-24T06:44:09.801Z,8.50
2022-12-24T06:46:39.981Z,8.50
2022-12-24T06:49:12.722Z,8.60
2022-12-24T06:51:42.753Z,8.60
2022-12-24T06:54:12.751Z,8.50
2022-12-24T06:56:42.701Z,8.50
2022-12-24T06:59:12.747Z,8.60
2022-12-24T07:01:42.793Z,8.50
2022-12-24T07:04:20.117Z,8.50
2022-12-24T07:06:50.831Z,8.50
2022-12-24T07:09:20.842Z,8.60
2022-12-24T07:11:50.794Z,8.60
2022-12-24T07:14:20.808Z,8.60
2022-12-24T07:16:56.898Z,8.60
2022-12-24T07:19:31.464Z,8.70
2022-12-24T07:22:01.480Z,8.70
2022-12-24T07:24:31.480Z,8.70
2022-12-24T07:27:01.444Z,8.80
2022-12-24T07:29:31.519Z,8.80
2022-12-24T07:32:01.608Z,8.80
2022-12-24T07:34:34.179Z,8.70
2022-12-24T07:37:04.268Z,8.80
2022-12-24T07:39:34.298Z,8.70
2022-12-24T07:42:05.773Z,8.80
2022-12-24T07:44:35.838Z,8.80
2022-12-24T07:47:05.990Z,8.80
2022-12-24T07:49:39.171Z,8.80
2022-12-24T07:52:09.285Z,8.90
2022-12-24T07:54:39.437Z,8.90
2022-12-24T07:57:09.478Z,8.90
2022-12-24T07:59:39.473Z,8.90
2022-12-24T08:02:15.832Z,8.90
2022-12-24T08:04:50.955Z,8.90
2022-12-24T08:07:21.006Z,9.00
2022-12-24T08:09:51.008Z,9.00
2022-12-24T08:12:20.995Z,9.10
2022-12-24T08:14:51.005Z,9.00
2022-12-24T08:17:21.045Z,9.00
2022-12-24T08:19:53.859Z,9.00
2022-12-24T08:22:23.872Z,9.00
2022-12-24T08:24:53.843Z,9.00
2022-12-24T08:27:23.931Z,9.00
2022-12-24T08:29:53.920Z,9.00
2022-12-24T08:32:23.870Z,8.90
2022-12-24T08:34:56.507Z,8.90
2022-12-24T08:37:26.607Z,9.00
2022-12-24T08:39:56.579Z,9.10
2022-12-24T08:42:26.740Z,9.10
2022-12-24T08:44:56.805Z,9.20
2022-12-24T08:47:26.802Z,9.10
2022-12-24T08:49:59.407Z,9.10
2022-12-24T08:52:29.486Z,9.20
2022-12-24T08:54:59.518Z,9.20
2022-12-24T08:57:29.559Z,9.20
2022-12-24T08:59:59.670Z,9.10
2022-12-24T09:02:29.753Z,9.20
2022-12-24T09:05:02.525Z,9.20
2022-12-24T09:07:32.647Z,9.30
2022-12-24T09:10:02.606Z,9.30
2022-12-24T09:12:32.670Z,9.20
2022-12-24T09:15:04.215Z,9.20
2022-12-24T09:17:34.577Z,9.20
2022-12-24T09:20:08.505Z,9.20
2022-12-24T09:22:39.947Z,9.20
2022-12-24T09:25:11.686Z,9.20
2022-12-24T09:27:41.760Z,9.20
2022-12-24T09:30:13.384Z,9.20
2022-12-24T09:32:43.399Z,9.20
2022-12-24T09:35:15.987Z,9.20
2022-12-24T09:37:46.011Z,9.20
2022-12-24T09:40:25.777Z,9.20
2022-12-24T09:42:56.756Z,9.10
2022-12-24T09:45:32.337Z,9.10
2022-12-24T09:48:05.187Z,9.00
2022-12-24T09:50:43.011Z,9.00
2022-12-24T09:53:20.282Z,8.90
2022-12-24T09:55:52.355Z,8.90
2022-12-24T09:58:29.167Z,9.00
2022-12-24T10:00:59.557Z,9.00
2022-12-24T10:03:29.875Z,9.00
2022-12-24T10:06:09.300Z,9.10
2022-12-24T10:08:42.532Z,9.20
2022-12-24T10:11:19.195Z,9.30
2022-12-24T10:14:07.036Z,9.40
2022-12-24T10:16:44.527Z,9.40
2022-12-24T10:19:19.429Z,9.40
2022-12-24T10:22:01.379Z,9.50
2022-12-24T10:24:36.444Z,9.50
2022-12-24T10:27:10.095Z,9.50
2022-12-24T10:29:43.800Z,9.50
2022-12-24T10:32:19.653Z,9.40
2022-12-24T10:34:54.743Z,9.40
2022-12-24T10:37:29.015Z,9.30
2022-12-24T10:40:00.184Z,9.30
2022-12-24T10:42:37.195Z,9.30
2022-12-24T10:45:09.957Z,9.30
2022-12-24T10:47:41.563Z,9.40
2022-12-24T10:50:20.200Z,9.30
2022-12-24T10:52:54.620Z,9.20
2022-12-24T10:55:28.415Z,9.20
2022-12-24T10:58:04.361Z,9.30
2022-12-24T11:00:36.642Z,9.30
2022-12-24T11:03:31.797Z,9.20
2022-12-24T11:06:13.509Z,9.20
2022-12-24T11:08:47.832Z,9.20
2022-12-24T11:11:20.433Z,9.20
2022-12-24T11:13:57.367Z,9.10
2022-12-24T11:16:30.943Z,9.10
2022-12-24T11:19:02.940Z,9.10
2022-12-24T11:21:34.879Z,9.10
2022-12-24T11:24:11.562Z,9.30
2022-12-24T11:26:42.927Z,9.40
2022-12-24T11:29:19.003Z,9.50
2022-12-24T11:31:50.027Z,9.60
2022-12-24T11:34:28.304Z,9.60
2022-12-24T11:37:14.641Z,9.40
2022-12-24T11:39:51.023Z,9.30
2022-12-24T11:42:30.037Z,9.10
2022-12-24T11:45:00.729Z,9.00
2022-12-24T11:47:37.996Z,9.00
2022-12-24T11:50:23.931Z,8.90
2022-12-24T11:52:58.216Z,8.90
2022-12-24T11:55:38.868Z,8.90
2022-12-24T11:58:17.847Z,8.80
2022-12-24T12:00:48.665Z,8.80
2022-12-24T12:03:29.179Z,8.80
2022-12-24T12:05:59.384Z,8.90
2022-12-24T12:08:31.385Z,8.90
2022-12-24T12:11:06.799Z,8.90
2022-12-24T12:13:38.376Z,9.00
2022-12-24T12:16:14.211Z,9.00
2022-12-24T12:18:46.627Z,9.10
2022-12-24T12:21:19.824Z,9.10
2022-12-24T12:23:53.076Z,9.20
2022-12-24T12:26:27.708Z,9.20
2022-12-24T12:29:00.026Z,9.20
2022-12-24T12:31:34.311Z,9.20
2022-12-24T12:34:08.073Z,9.20
2022-12-24T12:36:42.578Z,9.20
2022-12-24T12:39:13.485Z,9.10
2022-12-24T12:41:53.709Z,9.00
2022-12-24T12:44:35.669Z,9.00
2022-12-24T12:47:17.710Z,9.00
2022-12-24T12:49:53.705Z,9.10
2022-12-24T12:52:35.858Z,9.00
2022-12-24T12:55:23.874Z,9.00
2022-12-24T12:58:00.615Z,9.10
2022-12-24T13:00:31.437Z,9.10
2022-12-24T13:03:41.089Z,9.00
2022-12-24T13:06:29.864Z,8.90
2022-12-24T13:09:19.821Z,8.90
2022-12-24T13:12:11.480Z,9.00
2022-12-24T13:15:11.745Z,9.00
2022-12-24T13:18:04.432Z,9.00
2022-12-24T13:20:37.002Z,9.00
2022-12-24T13:23:15.329Z,8.90
2022-12-24T13:25:47.099Z,8.80
2022-12-24T13:28:35.981Z,8.80
2022-12-24T13:31:32.586Z,8.80
2022-12-24T13:34:06.150Z,8.80
2022-12-24T13:37:03.980Z,8.80
2022-12-24T13:40:03.862Z,8.80
2022-12-24T13:42:50.876Z,8.90
2022-12-24T13:45:45.902Z,8.90
2022-12-24T13:48:35.100Z,9.00
2022-12-24T13:51:21.365Z,9.10
2022-12-24T13:53:51.960Z,9.10
2022-12-24T13:56:29.308Z,9.10
2022-12-24T13:59:14.131Z,9.10
2022-12-24T14:01:45.545Z,9.20
2022-12-24T14:04:26.308Z,9.20
2022-12-24T14:06:58.022Z,9.10
2022-12-24T14:09:28.880Z,9.10
2022-12-24T14:12:20.550Z,8.90
2022-12-24T14:14:52.973Z,8.90
2022-12-24T14:17:25.930Z,8.90
2022-12-24T14:20:00.519Z,8.80
2022-12-24T14:22:34.329Z,8.80
2022-12-24T14:25:06.447Z,8.70
2022-12-24T14:27:41.824Z,8.80
2022-12-24T14:30:20.017Z,8.80
2022-12-24T14:32:51.096Z,8.70
2022-12-24T14:35:25.075Z,8.60
2022-12-24T14:38:00.559Z,8.50
2022-12-24T14:40:32.966Z,8.40
2022-12-24T14:43:09.559Z,8.30
2022-12-24T14:45:45.225Z,8.20
2022-12-24T14:48:19.094Z,8.10
2022-12-24T14:51:03.031Z,8.10
2022-12-24T14:53:49.404Z,8.10
2022-12-24T14:56:21.132Z,8.00
2022-12-24T14:58:51.789Z,8.00
2022-12-24T15:01:25.429Z,7.90
2022-12-24T15:04:06.824Z,8.00
2022-12-24T15:06:42.259Z,8.10
2022-12-24T15:09:17.105Z,8.10
2022-12-24T15:11:47.406Z,8.20
2022-12-24T15:14:17.829Z,8.20
2022-12-24T15:16:56.032Z,8.20
2022-12-24T15:19:29.307Z,8.20
2022-12-24T15:22:02.380Z,8.20
2022-12-24T15:24:34.555Z,8.20
2022-12-24T15:27:06.685Z,8.20
2022-12-24T15:29:43.044Z,8.20
2022-12-24T15:32:15.954Z,8.30
2022-12-24T15:34:48.027Z,8.30
2022-12-24T15:37:22.736Z,8.20
2022-12-24T15:39:56.652Z,8.20
2022-12-24T15:42:27.423Z,8.20
2022-12-24T15:45:03.567Z,8.20
2022-12-24T15:47:38.371Z,8.20
2022-12-24T15:50:18.040Z,8.10
2022-12-24T15:53:19.813Z,8.10
2022-12-24T15:55:42.746Z,8.10
2022-12-24T15:58:20.602Z,8.20
2022-12-24T16:01:04.653Z,8.20
2022-12-24T16:03:35.154Z,8.20
2022-12-24T16:06:06.422Z,8.20
2022-12-24T16:08:40.389Z,8.20
2022-12-24T16:11:17.737Z,8.30
2022-12-24T16:14:00.101Z,8.20
2022-12-24T16:16:36.316Z,8.20
2022-12-24T16:19:08.463Z,8.10
2022-12-24T16:21:40.174Z,8.10
2022-12-24T16:24:18.086Z,8.10
2022-12-24T16:26:49.155Z,8.00
2022-12-24T16:29:20.461Z,8.10
2022-12-24T16:31:55.552Z,7.90
2022-12-24T16:34:27.378Z,7.90
2022-12-24T16:36:58.147Z,7.90
2022-12-24T16:39:33.762Z,7.90
2022-12-24T16:42:18.020Z,7.80
2022-12-24T16:44:48.834Z,7.80
2022-12-24T16:47:21.853Z,7.70
2022-12-24T16:49:51.811Z,7.60
2022-12-24T16:52:26.056Z,7.60
2022-12-24T16:54:59.348Z,7.50
2022-12-24T16:57:30.073Z,7.50
2022-12-24T17:00:00.080Z,7.50
2022-12-24T17:02:30.408Z,7.50
2022-12-24T17:05:00.659Z,7.40
2022-12-24T17:07:30.780Z,7.40
2022-12-24T17:10:03.439Z,7.40
2022-12-24T17:12:33.465Z,7.40
2022-12-24T17:15:03.507Z,7.40
2022-12-24T17:17:33.756Z,7.40
2022-12-24T17:20:04.788Z,7.40
2022-12-24T17:22:34.951Z,7.30
2022-12-24T17:25:09.291Z,7.40
2022-12-24T17:27:39.340Z,7.50
2022-12-24T17:30:10.794Z,7.50
2022-12-24T17:32:41.035Z,7.50
2022-12-24T17:35:12.201Z,7.50
2022-12-24T17:37:42.351Z,7.40
2022-12-24T17:40:15.831Z,7.40
2022-12-24T17:42:45.869Z,7.40
2022-12-24T17:45:15.822Z,7.50
2022-12-24T17:47:45.999Z,7.60
2022-12-24T17:50:16.066Z,7.70
2022-12-24T17:52:46.036Z,7.60
2022-12-24T17:55:18.823Z,7.60
2022-12-24T17:57:48.857Z,7.70
2022-12-24T18:00:20.460Z,7.80
2022-12-24T18:02:50.689Z,7.80
2022-12-24T18:05:20.998Z,7.90
2022-12-24T18:07:51.102Z,8.00
2022-12-24T18:10:23.899Z,8.00
2022-12-24T18:12:53.957Z,8.00
2022-12-24T18:15:24.617Z,7.90
2022-12-24T18:17:55.446Z,7.80
2022-12-24T18:20:25.836Z,7.80
2022-12-24T18:22:56.774Z,7.70
2022-12-24T18:25:29.511Z,7.60
2022-12-24T18:28:00.482Z,7.50
2022-12-24T18:30:30.860Z,7.60
2022-12-24T18:33:00.856Z,7.60
2022-12-24T18:35:30.876Z,7.50
2022-12-24T18:38:01.216Z,7.50
2022-12-24T18:40:33.940Z,7.40
2022-12-24T18:43:03.943Z,7.50
2022-12-24T18:45:34.262Z,7.40
2022-12-24T18:48:04.369Z,7.40
2022-12-24T18:50:34.363Z,7.40
2022-12-24T18:53:04.658Z,7.40
2022-12-24T18:55:40.161Z,7.20
2022-12-24T18:58:10.201Z,7.10
2022-12-24T19:00:40.273Z,7.10
2022-12-24T19:03:10.364Z,7.00
2022-12-24T19:05:40.533Z,6.90
2022-12-24T19:08:37.786Z,6.70
2022-12-24T19:11:03.215Z,6.70
2022-12-24T19:13:33.226Z,6.70
2022-12-24T19:16:03.398Z,6.70
2022-12-24T19:18:33.698Z,6.70
2022-12-24T19:21:08.177Z,6.70
2022-12-24T19:23:38.389Z,6.70
2022-12-24T19:26:12.667Z,6.70
2022-12-24T19:28:43.157Z,6.80
2022-12-24T19:31:15.416Z,7.00
2022-12-24T19:33:47.686Z,7.20
2022-12-24T19:36:18.890Z,7.40
2022-12-24T19:38:49.010Z,7.40
2022-12-24T19:41:23.571Z,7.40
2022-12-24T19:43:55.829Z,7.40
2022-12-24T19:46:29.702Z,7.40
2022-12-24T19:49:01.287Z,7.50
2022-12-24T19:51:32.205Z,7.40
2022-12-24T19:54:02.808Z,7.40
2022-12-24T19:56:35.858Z,7.40
2022-12-24T19:59:06.462Z,7.50
2022-12-24T20:01:38.115Z,7.40
2022-12-24T20:04:08.402Z,7.40
2022-12-24T20:06:39.503Z,7.30
2022-12-24T20:09:11.161Z,7.20
2022-12-24T20:11:43.751Z,7.10
2022-12-24T20:14:14.831Z,7.00
2022-12-24T20:16:45.561Z,7.10
2022-12-24T20:19:17.005Z,7.30
2022-12-24T20:21:46.990Z,7.50
2022-12-24T20:24:16.993Z,7.30
2022-12-24T20:26:49.557Z,7.10
2022-12-24T20:29:19.628Z,7.20
2022-12-24T20:31:49.705Z,7.20
2022-12-24T20:34:19.806Z,7.20
2022-12-24T20:36:49.839Z,7.20
2022-12-24T20:39:19.947Z,7.10
2022-12-24T20:41:52.509Z,7.10
2022-12-24T20:44:23.592Z,7.20
2022-12-24T20:46:54.219Z,7.40
2022-12-24T20:49:24.257Z,7.50
2022-12-24T20:51:54.234Z,7.60
2022-12-24T20:54:24.239Z,7.60
2022-12-24T20:56:58.913Z,7.70
2022-12-24T20:59:29.218Z,7.60
2022-12-24T21:01:59.403Z,7.60
2022-12-24T21:04:29.567Z,7.50
2022-12-24T21:06:59.572Z,7.50
2022-12-24T21:09:29.643Z,7.40
2022-12-24T21:12:14.614Z,7.30
2022-12-24T21:14:44.663Z,7.40
2022-12-24T21:17:16.160Z,7.40
2022-12-24T21:19:46.368Z,7.50
2022-12-24T21:22:16.363Z,7.50
2022-12-24T21:24:46.345Z,7.50
2022-12-24T21:27:19.140Z,7.40
2022-12-24T21:29:49.602Z,7.30
2022-12-24T21:32:19.831Z,7.20
2022-12-24T21:34:50.147Z,7.00
2022-12-24T21:37:20.338Z,6.90
2022-12-24T21:39:54.909Z,6.70
2022-12-24T21:42:27.869Z,6.50
2022-12-24T21:44:57.962Z,6.30
2022-12-24T21:47:28.088Z,6.30
2022-12-24T21:50:10.444Z,6.10
2022-12-24T21:52:40.491Z,6.00
2022-12-24T21:55:10.633Z,6.00
2022-12-24T21:57:58.115Z,5.90
2022-12-24T22:00:30.839Z,5.80
2022-12-24T22:03:01.737Z,5.70
2022-12-24T22:05:31.917Z,5.60
2022-12-24T22:08:14.511Z,5.50
2022-12-24T22:10:56.996Z,5.50
2022-12-24T22:13:31.478Z,5.60
2022-12-24T22:16:01.549Z,5.80
2022-12-24T22:18:38.911Z,6.00
2022-12-24T22:21:09.230Z,6.00
2022-12-24T22:23:42.703Z,6.00
2022-12-24T22:26:14.518Z,6.00
2022-12-24T22:28:47.379Z,6.10
2022-12-24T22:31:20.992Z,6.00
2022-12-24T22:33:51.051Z,6.00
2022-12-24T22:36:22.088Z,6.10
2022-12-24T22:38:52.744Z,6.10
2022-12-24T22:41:22.801Z,6.10
2022-12-24T22:43:57.688Z,6.10
2022-12-24T22:46:27.947Z,6.10
2022-12-24T22:48:58.063Z,6.10
2022-12-24T22:51:28.001Z,6.20
2022-12-24T22:53:57.999Z,6.30
2022-12-24T22:56:28.024Z,6.40
2022-12-24T22:59:00.963Z,6.60
2022-12-24T23:01:37.423Z,6.70
2022-12-24T23:04:08.829Z,6.70
2022-12-24T23:06:39.188Z,6.80
2022-12-24T23:09:10.730Z,6.90
2022-12-24T23:11:40.813Z,6.90
2022-12-24T23:14:30.491Z,6.90
2022-12-24T23:17:00.699Z,6.90
2022-12-24T23:19:31.987Z,7.00
2022-12-24T23:22:02.282Z,7.10
2022-12-24T23:24:32.532Z,7.20
2022-12-24T23:27:03.473Z,7.20
2022-12-24T23:29:36.327Z,7.20
2022-12-24T23:32:06.612Z,7.30
2022-12-24T23:34:36.627Z,7.30
2022-12-24T23:37:06.678Z,7.20
2022-12-24T23:39:36.722Z,7.20
2022-12-24T23:42:06.923Z,7.20
2022-12-24T23:44:39.611Z,7.20
2022-12-24T23:47:09.845Z,7.10
2022-12-24T23:49:39.848Z,7.00
2022-12-24T23:52:09.973Z,7.10
2022-12-24T23:54:40.091Z,7.10
2022-12-24T23:57:10.380Z,7.10
2022-12-24T23:59:43.003Z,7.10
